地図

経路データ

SID SEASON NUMBER BASIN SUBBASIN NAME ISO_TIME NATURE LAT LON WMO_WIND WMO_PRES WMO_AGENCY TRACK_TYPE DIST2LAND LANDFALL IFLAG USA_AGENCY USA_ATCF_ID USA_LAT USA_LON USA_RECORD USA_STATUS USA_WIND USA_PRES USA_SSHS USA_R34_NE USA_R34_SE USA_R34_SW USA_R34_NW USA_R50_NE USA_R50_SE USA_R50_SW USA_R50_NW USA_R64_NE USA_R64_SE USA_R64_SW USA_R64_NW USA_POCI USA_ROCI USA_RMW USA_EYE TOKYO_LAT TOKYO_LON TOKYO_GRADE TOKYO_WIND TOKYO_PRES TOKYO_R50_DIR TOKYO_R50_LONG TOKYO_R50_SHORT TOKYO_R30_DIR TOKYO_R30_LONG TOKYO_R30_SHORT TOKYO_LAND CMA_LAT CMA_LON CMA_CAT CMA_WIND CMA_PRES HKO_LAT HKO_LON HKO_CAT HKO_WIND HKO_PRES NEWDELHI_LAT NEWDELHI_LON NEWDELHI_GRADE NEWDELHI_WIND NEWDELHI_PRES NEWDELHI_CI NEWDELHI_DP NEWDELHI_POCI REUNION_LAT REUNION_LON REUNION_TYPE REUNION_WIND REUNION_PRES REUNION_TNUM REUNION_CI REUNION_RMW REUNION_R34_NE REUNION_R34_SE REUNION_R34_SW REUNION_R34_NW REUNION_R50_NE REUNION_R50_SE REUNION_R50_SW REUNION_R50_NW REUNION_R64_NE REUNION_R64_SE REUNION_R64_SW REUNION_R64_NW BOM_LAT BOM_LON BOM_TYPE BOM_WIND BOM_PRES BOM_TNUM BOM_CI BOM_RMW BOM_R34_NE BOM_R34_SE BOM_R34_SW BOM_R34_NW BOM_R50_NE BOM_R50_SE BOM_R50_SW BOM_R50_NW BOM_R64_NE BOM_R64_SE BOM_R64_SW BOM_R64_NW BOM_ROCI BOM_POCI BOM_EYE BOM_POS_METHOD BOM_PRES_METHOD NADI_LAT NADI_LON NADI_CAT NADI_WIND NADI_PRES WELLINGTON_LAT WELLINGTON_LON WELLINGTON_WIND WELLINGTON_PRES DS824_LAT DS824_LON DS824_STAGE DS824_WIND DS824_PRES TD9636_LAT TD9636_LON TD9636_STAGE TD9636_WIND TD9636_PRES TD9635_LAT TD9635_LON TD9635_WIND TD9635_PRES TD9635_ROCI NEUMANN_LAT NEUMANN_LON NEUMANN_CLASS NEUMANN_WIND NEUMANN_PRES MLC_LAT MLC_LON MLC_CLASS MLC_WIND MLC_PRES USA_GUST BOM_GUST BOM_GUST_PER REUNION_GUST REUNION_GUST_PER USA_SEAHGT USA_SEARAD_NE USA_SEARAD_SE USA_SEARAD_SW USA_SEARAD_NW STORM_SPEED STORM_DIR
1960321N11067 1960 91 NI AS NOT_NAMED 1960-11-15 18:00:00 TS 10.5000 67.1000 main 877 877 O________O____ jtwc_io IO151960 10.5000 67.1000 -1 10.5000 67.1000 TC 3 315
1960321N11067 1960 91 NI AS NOT_NAMED 1960-11-15 21:00:00 TS 10.5975 67.0025 main 884 884 P________P____ IO151960 10.5975 67.0025 -1 10.5975 67.0025 TC 3 315
1960321N11067 1960 91 NI AS NOT_NAMED 1960-11-16 00:00:00 TS 10.7000 66.9000 main 892 892 O________O____ jtwc_io IO151960 10.7000 66.9000 -1 10.7000 66.9000 TC 25 3 315
1960321N11067 1960 91 NI AS NOT_NAMED 1960-11-16 03:00:00 TS 10.8067 66.7933 main 899 899 P________PO___ IO151960 10.8075 66.7925 -1 10.8075 66.7925 TC 25 10.8000 66.8000 1 3 315
1960321N11067 1960 91 NI AS NOT_NAMED 1960-11-16 06:00:00 TS 10.8941 66.7044 main 907 907 O________OP___ jtwc_io IO151960 10.9000 66.7000 -1 10.9000 66.7000 TC 25 10.8703 66.7219 1 2 314
1960321N11067 1960 91 NI AS NOT_NAMED 1960-11-16 09:00:00 TS 10.9480 66.6486 main 917 914 P________PP___ IO151960 10.9500 66.6500 -1 10.9500 66.6500 TC 25 10.9425 66.6450 1 2 315
1960321N11067 1960 91 NI AS NOT_NAMED 1960-11-16 12:00:00 TS 11.0061 66.5902 main 914 914 O________OP___ jtwc_io IO151960 11.0000 66.6000 -1 11.0000 66.6000 TC 25 11.0184 66.5706 1 2 316
1960321N11067 1960 91 NI AS NOT_NAMED 1960-11-16 15:00:00 TS 11.1000 66.5000 main 918 918 P________PO___ IO151960 11.1000 66.5000 -1 11.1000 66.5000 TC 25 11.1000 66.5000 1 3 317
1960321N11067 1960 91 NI AS NOT_NAMED 1960-11-16 18:00:00 TS 11.1957 66.4116 main 922 916 O________OP___ jtwc_io IO151960 11.2000 66.4000 -1 11.2000 66.4000 TC 25 11.1872 66.4347 1 2 318
1960321N11067 1960 91 NI AS NOT_NAMED 1960-11-16 21:00:00 TS 11.2625 66.3492 main 926 926 P________PP___ IO151960 11.2575 66.3350 -1 11.2575 66.3350 TC 25 11.2725 66.3775 1 2 321
1960321N11067 1960 91 NI AS NOT_NAMED 1960-11-17 00:00:00 TS 11.3155 66.3105 main 926 921 O________OP___ jtwc_io IO151960 11.3000 66.3000 -1 11.3000 66.3000 TC 25 11.3466 66.3316 1 1 331
1960321N11067 1960 91 NI AS NOT_NAMED 1960-11-17 03:00:00 TS 11.3717 66.2950 main 921 921 P________PO___ IO151960 11.3575 66.2925 -1 11.3575 66.2925 TC 25 11.4000 66.3000 1 1 0
1960321N11067 1960 91 NI AS NOT_NAMED 1960-11-17 06:00:00 TS 11.4072 66.2952 main 921 921 O________OP___ jtwc_io IO151960 11.4000 66.3000 -1 11.4000 66.3000 TC 25 11.4216 66.2856 1 0 0
1960321N11067 1960 91 NI AS NOT_NAMED 1960-11-17 09:00:00 TS 11.4125 66.2950 main 921 921 P________PP___ IO151960 11.4075 66.3000 -1 11.4075 66.3000 TC 25 11.4225 66.2850 1 0 0
1960321N11067 1960 91 NI AS NOT_NAMED 1960-11-17 12:00:00 TS 11.4041 66.2973 main 921 921 O________OP___ jtwc_io IO151960 11.4000 66.3000 -1 11.4000 66.3000 TC 25 11.4122 66.2919 1 0 0
1960321N11067 1960 91 NI AS NOT_NAMED 1960-11-17 15:00:00 TS 11.4000 66.3000 main 921 921 P________PO___ IO151960 11.4000 66.3000 -1 11.4000 66.3000 TC 25 11.4000 66.3000 1 0 0
1960321N11067 1960 91 NI AS NOT_NAMED 1960-11-17 18:00:00 TS 11.3796 66.3242 main 921 911 O________OP___ jtwc_io IO151960 11.4000 66.3000 -1 11.4000 66.3000 TC 25 11.3388 66.3727 1 1 134
1960321N11067 1960 91 NI AS NOT_NAMED 1960-11-17 21:00:00 TS 11.3524 66.3547 main 911 911 P________PP___ IO151960 11.3850 66.3150 -1 11.3850 66.3150 TC 25 11.2871 66.4342 1 0 0
1960321N11067 1960 91 NI AS NOT_NAMED 1960-11-18 00:00:00 TS 11.3639 66.3429 main 921 921 O________OP___ jtwc_io IO151960 11.4000 66.3000 -1 11.4000 66.3000 TC 25 11.2918 66.4286 1 1 312
1960321N11067 1960 91 NI AS NOT_NAMED 1960-11-18 03:00:00 TS 11.4116 66.2831 main 921 921 P________PO___ IO151960 11.4174 66.2746 -1 11.4174 66.2746 TC 25 11.4000 66.3000 1 4 316
1960321N11067 1960 91 NI AS NOT_NAMED 1960-11-18 06:00:00 TS 11.6428 66.0656 main 930 930 O________OP___ jtwc_io IO151960 11.6000 66.1000 -1 11.6000 66.1000 TC 25 11.7283 65.9969 1 10 320
1960321N11067 1960 91 NI AS NOT_NAMED 1960-11-18 09:00:00 TS 12.1501 65.6394 main 953 953 P________PP___ IO151960 12.1501 65.6757 -1 12.1501 65.6757 TC 25 12.1502 65.5669 1 14 317
1960321N11067 1960 91 NI AS NOT_NAMED 1960-11-18 12:00:00 TS 12.6573 65.0844 main 979 979 O________OP___ jtwc_io IO151960 12.7000 65.1000 -1 12.7000 65.1000 TC 25 12.5720 65.0533 1 13 304
1960321N11067 1960 91 NI AS NOT_NAMED 1960-11-18 15:00:00 TS 12.8883 64.5098 main 989 944 P________PO___ IO151960 12.8824 64.5147 -1 12.8824 64.5147 TC 25 12.9000 64.5000 1 12 284
1960321N11067 1960 91 NI AS NOT_NAMED 1960-11-18 18:00:00 TS 12.9361 63.9124 main 944 900 O________OP___ jtwc_io IO151960 12.9000 63.9000 -1 12.9000 63.9000 TC 25 13.0082 63.9372 1 12 273
1960321N11067 1960 91 NI AS NOT_NAMED 1960-11-18 21:00:00 TS 12.9478 63.2929 main 900 867 P________PP___ IO151960 12.9151 63.2624 -1 12.9151 63.2624 TC 30 13.0132 63.3538 1 12 269
1960321N11067 1960 91 NI AS NOT_NAMED 1960-11-19 00:00:00 TS 12.9205 62.7312 main 860 835 O________OP___ jtwc_io IO151960 12.9000 62.7000 -1 12.9000 62.7000 TC 35 12.9614 62.7936 1 10 267
1960321N11067 1960 91 NI AS NOT_NAMED 1960-11-19 03:00:00 TS 12.8999 62.3033 main 835 814 P________PO___ IO151960 12.8998 62.3050 -1 12.8998 62.3050 TC 35 12.9000 62.3000 2 7 268
1960321N11067 1960 91 NI AS NOT_NAMED 1960-11-19 06:00:00 TS 12.8998 61.9774 main 814 782 O________OP___ jtwc_io IO151960 12.9000 62.0000 -1 12.9000 62.0000 TC 35 12.8993 61.9322 2 6 270
1960321N11067 1960 91 NI AS NOT_NAMED 1960-11-19 09:00:00 TS 12.8997 61.6725 main 782 749 P________PP___ IO151960 12.8999 61.6925 -1 12.8999 61.6925 TC 35 12.8991 61.6326 2 6 270
1960321N11067 1960 91 NI AS NOT_NAMED 1960-11-19 12:00:00 TS 12.8998 61.3889 main 749 717 O________OP___ jtwc_io IO151960 12.9000 61.4000 -1 12.9000 61.4000 TC 35 12.8995 61.3666 2 6 270
1960321N11067 1960 91 NI AS NOT_NAMED 1960-11-19 15:00:00 TS 12.9000 61.1000 main 717 684 P________PO___ IO151960 12.9000 61.1000 -1 12.9000 61.1000 TC 35 12.9000 61.1000 3 6 270
1960321N11067 1960 91 NI AS NOT_NAMED 1960-11-19 18:00:00 TS 12.8999 60.8008 main 684 651 O________OP___ jtwc_io IO151960 12.9000 60.8000 -1 12.9000 60.8000 TC 35 12.8997 60.8025 3 6 270
1960321N11067 1960 91 NI AS NOT_NAMED 1960-11-19 21:00:00 TS 12.8998 60.5083 main 651 619 P________PP___ IO151960 12.8999 60.5150 -1 12.8999 60.5150 TC 35 12.8996 60.4950 3 6 270
1960321N11067 1960 91 NI AS NOT_NAMED 1960-11-20 00:00:00 TS 12.8999 60.1883 main 619 576 O________OP___ jtwc_io IO151960 12.9000 60.2000 -1 12.9000 60.2000 TC 35 12.8997 60.1650 3 7 270
1960321N11067 1960 91 NI AS NOT_NAMED 1960-11-20 03:00:00 TS 12.9000 59.8150 main 576 532 P________PO___ IO151960 12.9000 59.8225 -1 12.9000 59.8225 TC 35 12.9000 59.8000 3 8 270
1960321N11067 1960 91 NI AS NOT_NAMED 1960-11-20 06:00:00 TS 12.8973 59.3953 main 532 489 O________OP___ jtwc_io IO151960 12.9000 59.4000 -1 12.9000 59.4000 TC 35 12.8919 59.3858 3 8 270
1960321N11067 1960 91 NI AS NOT_NAMED 1960-11-20 09:00:00 TS 12.8950 58.9558 main 489 435 P________PP___ IO151960 12.8999 58.9650 -1 12.8999 58.9650 TC 35 12.8850 58.9373 3 9 270
1960321N11067 1960 91 NI AS NOT_NAMED 1960-11-20 12:00:00 TS 12.8952 58.4900 main 435 381 O________OP___ jtwc_io IO151960 12.9000 58.5000 -1 12.9000 58.5000 TC 35 12.8856 58.4701 3 9 270
1960321N11067 1960 91 NI AS NOT_NAMED 1960-11-20 15:00:00 TS 12.8950 58.0000 main 381 327 P________PO___ IO151960 12.8925 58.0000 -1 12.8925 58.0000 TC 35 12.9000 58.0000 3 10 271
1960321N11067 1960 91 NI AS NOT_NAMED 1960-11-20 18:00:00 TS 12.9106 57.5018 main 327 273 O________OP___ jtwc_io IO151960 12.9000 57.5000 -1 12.9000 57.5000 TC 35 12.9318 57.5055 3 10 273
1960321N11067 1960 91 NI AS NOT_NAMED 1960-11-20 21:00:00 TS 12.9493 57.0242 main 273 232 P________PP___ IO151960 12.9350 57.0275 -1 12.9350 57.0275 TC 35 12.9779 57.0177 3 9 276
1960321N11067 1960 91 NI AS NOT_NAMED 1960-11-21 00:00:00 TS 13.0117 56.5904 main 232 192 O________OP___ jtwc_io IO151960 13.0000 56.6000 -1 13.0000 56.6000 TC 35 13.0350 56.5711 3 8 281
1960321N11067 1960 91 NI AS NOT_NAMED 1960-11-21 03:00:00 TS 13.1000 56.2034 main 192 166 P________PO___ IO151960 13.1000 56.2051 -1 13.1000 56.2051 TC 35 13.1000 56.2000 3 7 285
1960321N11067 1960 91 NI AS NOT_NAMED 1960-11-21 06:00:00 TS 13.1878 55.9153 main 166 146 O________OP___ jtwc_io IO151960 13.2000 55.9000 -1 13.2000 55.9000 TC 35 13.1633 55.9459 3 5 288
1960321N11067 1960 91 NI AS NOT_NAMED 1960-11-21 09:00:00 TS 13.2448 55.7358 main 146 142 P________PP___ IO151960 13.2499 55.7199 -1 13.2499 55.7199 TC 35 13.2344 55.7674 3 3 291
1960321N11067 1960 91 NI AS NOT_NAMED 1960-11-21 12:00:00 TS 13.3045 55.6101 main 142 133 O________OP___ jtwc_io IO151960 13.3000 55.6000 -1 13.3000 55.6000 TC 35 13.3134 55.6302 3 3 300
1960321N11067 1960 91 NI AS NOT_NAMED 1960-11-21 15:00:00 TS 13.3950 55.4667 main 140 132 P________PO___ IO151960 13.3925 55.4500 -1 13.3925 55.4500 TC 35 13.4000 55.5000 3 3 305
1960321N11067 1960 91 NI AS NOT_NAMED 1960-11-21 18:00:00 TS 13.5043 55.3165 main 132 132 O________OP___ jtwc_io IO151960 13.5000 55.3000 -1 13.5000 55.3000 TC 35 13.5129 55.3494 3 4 308
1960321N11067 1960 91 NI AS NOT_NAMED 1960-11-21 21:00:00 TS 13.6149 55.1750 main 135 129 P________PP___ IO151960 13.6075 55.1650 -1 13.6075 55.1650 TC 35 13.6297 55.1951 3 4 304
1960321N11067 1960 91 NI AS NOT_NAMED 1960-11-22 00:00:00 TS 13.7105 55.0061 main 134 130 O________OP___ jtwc_io IO151960 13.7000 55.0000 -1 13.7000 55.0000 TC 35 13.7316 55.0182 3 4 294
1960321N11067 1960 91 NI AS NOT_NAMED 1960-11-22 03:00:00 TS 13.7816 54.7867 main 138 134 P________PO___ IO151960 13.7725 54.7800 -1 13.7725 54.7800 TC 35 13.8000 54.8000 3 5 281
1960321N11067 1960 91 NI AS NOT_NAMED 1960-11-22 06:00:00 TS 13.8050 54.5060 main 134 134 O________OP___ jtwc_io IO151960 13.8000 54.5000 -1 13.8000 54.5000 TC 35 13.8151 54.5180 3 6 269
1960321N11067 1960 91 NI AS NOT_NAMED 1960-11-22 09:00:00 TS 13.7701 54.1699 main 134 123 P________PP___ IO151960 13.7575 54.1574 -1 13.7575 54.1574 TC 35 13.7951 54.1948 3 7 263
1960321N11067 1960 91 NI AS NOT_NAMED 1960-11-22 12:00:00 TS 13.7175 53.8164 main 123 123 O________OP___ jtwc_io IO151960 13.7000 53.8000 -1 13.7000 53.8000 TC 35 13.7526 53.8493 3 7 264
1960321N11067 1960 91 NI AS NOT_NAMED 1960-11-22 15:00:00 TS 13.6999 53.5000 main 123 123 P________PO___ IO151960 13.6999 53.5001 -1 13.6999 53.5001 TC 35 13.7000 53.5000 3 6 266
1960321N11067 1960 91 NI AS NOT_NAMED 1960-11-22 18:00:00 TS 13.6791 53.1848 main 125 124 O________OP___ jtwc_io IO151960 13.7000 53.2000 -1 13.7000 53.2000 TC 35 13.6479 53.1619 3 6 264
1960321N11067 1960 91 NI AS NOT_NAMED 1960-11-22 21:00:00 TS 13.6348 52.8507 main 124 124 P________PP___ IO151960 13.6626 52.8624 -1 13.6626 52.8624 TC 30 13.5977 52.8350 3 7 261
1960321N11067 1960 91 NI AS NOT_NAMED 1960-11-23 00:00:00 TS 13.5743 52.5078 main 148 147 O________OP___ jtwc_io IO151960 13.6000 52.5000 -1 13.6000 52.5000 TC 25 13.5486 52.5156 3 6 258
1960321N11067 1960 91 NI AS NOT_NAMED 1960-11-23 03:00:00 NR 13.5000 52.2000 main 163 __________O___ IO151960 -1 TC 13.5000 52.2000 1 6 256

IBTrACS Databaseについて

本データベースは、米国NOAAが公開する1842年以降の世界の熱帯低気圧のベストトラックデータアーカイブInternational Best Track Archive for Climate Stewardship (IBTrACS)を、ウェブで閲覧しやすい形式に変換したものです。

最終更新日:2021-10-21